Time;durP1;ratioP1;P1;durP2;ratioP2;P2;SDS_P1;SDS_P2;PMS_P1;PMS_P2;Temp;Humidity;BMP_temperature;BMP_pressure;BME280_temperature;BME280_humidity;BME280_pressure;Samples;Min_cycle;Max_cycle;Signal;HPM_P1;HPM_P2
2021/03/25 00:02:10;;;;;;;84.13;44.03;;;;;;;3.54;47.16;99479.13;114888;1200;103107;-72
2021/03/25 00:04:37;;;;;;;86.23;47.70;;;;;;;3.57;48.06;99482.48;114895;1200;103136;-74
2021/03/25 00:07:04;;;;;;;90.97;47.70;;;;;;;3.61;48.22;99479.75;115513;1198;103057;-73
2021/03/25 00:09:39;;;;;;;85.88;43.35;;;;;;;3.64;47.45;99475.25;115377;1200;103159;-73
2021/03/25 00:12:09;;;;;;;72.00;39.27;;;;;;;3.66;47.83;99477.80;114846;1200;103063;-73
2021/03/25 00:14:36;;;;;;;71.90;38.23;;;;;;;3.68;48.10;99478.61;114952;1200;103133;-73
2021/03/25 00:17:04;;;;;;;74.33;40.90;;;;;;;3.71;47.53;99467.97;115001;1200;103072;-74
2021/03/25 00:19:33;;;;;;;73.90;38.97;;;;;;;3.75;47.80;99472.20;114984;1200;103182;-73
2021/03/25 00:22:00;;;;;;;71.93;39.90;;;;;;;3.77;48.10;99472.13;115018;1200;103041;-72
2021/03/25 00:24:27;;;;;;;80.30;43.80;;;;;;;3.79;48.13;99468.54;114926;1200;103063;-72
2021/03/25 00:26:54;;;;;;;73.33;40.45;;;;;;;3.81;48.79;99466.70;114982;1200;103178;-71
2021/03/25 00:29:20;;;;;;;74.35;40.50;;;;;;;3.84;48.55;99460.45;114963;1199;103162;-72
2021/03/25 00:31:47;;;;;;;74.70;40.60;;;;;;;3.85;48.28;99463.05;115061;1200;103060;-72
2021/03/25 00:34:19;;;;;;;71.27;38.73;;;;;;;3.88;48.59;99467.31;114998;1200;103110;-71
2021/03/25 00:36:46;;;;;;;77.40;42.25;;;;;;;3.90;48.26;99459.34;114877;1200;103136;-74
2021/03/25 00:39:15;;;;;;;77.47;42.50;;;;;;;3.92;48.51;99462.78;114809;1200;103130;-71
2021/03/25 00:41:42;;;;;;;90.13;47.80;;;;;;;3.94;48.36;99459.19;114778;1200;103044;-70
2021/03/25 00:44:13;;;;;;;80.30;44.00;;;;;;;3.93;48.76;99459.23;115002;1200;103142;-69
2021/03/25 00:46:43;;;;;;;77.85;42.05;;;;;;;3.91;48.51;99467.20;114996;1200;103210;-72
2021/03/25 00:49:13;;;;;;;75.80;42.90;;;;;;;3.90;48.61;99468.12;114974;1200;103251;-69
2021/03/25 00:51:40;;;;;;;75.30;43.07;;;;;;;3.88;48.94;99465.53;115011;1200;103072;-71
2021/03/25 00:54:07;;;;;;;75.60;41.65;;;;;;;3.88;48.74;99462.05;114986;1200;103089;-72
2021/03/25 00:56:39;;;;;;;75.95;43.10;;;;;;;3.84;48.47;99458.70;114947;1200;103037;-72
2021/03/25 00:59:06;;;;;;;77.10;43.20;;;;;;;3.82;48.74;99454.39;114982;1200;103150;-71
2021/03/25 01:01:34;;;;;;;76.20;43.05;;;;;;;3.83;49.11;99459.61;114942;1200;103082;-71
2021/03/25 01:04:05;;;;;;;78.93;42.43;;;;;;;3.83;48.85;99456.98;114770;1203;103536;-71
2021/03/25 01:06:32;;;;;;;81.30;43.15;;;;;;;3.83;48.95;99456.11;114981;1200;103188;-72
2021/03/25 01:08:59;;;;;;;84.37;46.93;;;;;;;3.83;48.64;99453.48;115044;1200;103057;-71
2021/03/25 01:11:30;;;;;;;92.07;47.40;;;;;;;3.86;48.57;99451.60;114981;1200;103079;-71
2021/03/25 01:14:02;;;;;;;88.40;48.65;;;;;;;3.84;49.17;99447.30;114952;1200;103047;-73
2021/03/25 01:16:34;;;;;;;87.20;47.20;;;;;;;3.81;49.07;99450.92;114939;1202;103083;-73
2021/03/25 01:19:17;;;;;;;87.80;47.38;;;;;;;3.78;49.01;99451.03;114977;1200;103159;-74
2021/03/25 01:21:47;;;;;;;88.55;48.15;;;;;;;3.77;49.29;99440.55;114987;1200;103146;-71
2021/03/25 01:24:14;;;;;;;86.05;46.20;;;;;;;3.78;49.01;99439.64;115011;1200;103115;-73
2021/03/25 01:26:41;;;;;;;82.30;48.63;;;;;;;3.79;49.39;99442.22;114966;1200;103143;-74
2021/03/25 01:29:08;;;;;;;87.58;48.33;;;;;;;3.82;50.13;99446.50;114998;1200;103207;-72
2021/03/25 01:31:37;;;;;;;86.90;47.40;;;;;;;3.84;50.17;99432.38;114950;1200;103151;-73
2021/03/25 01:34:12;;;;;;;84.83;48.67;;;;;;;3.87;50.24;99432.23;114978;1200;103066;-72
2021/03/25 01:36:39;;;;;;;85.93;48.53;;;;;;;3.91;49.60;99421.59;114936;1200;103199;-72
2021/03/25 01:39:06;;;;;;;86.87;46.77;;;;;;;3.94;49.67;99432.87;115001;1200;103149;-73
2021/03/25 01:41:38;;;;;;;85.80;47.83;;;;;;;3.94;49.98;99426.73;115036;1200;103132;-73
2021/03/25 01:44:08;;;;;;;79.77;45.53;;;;;;;3.94;50.30;99432.87;114953;1200;103072;-74
2021/03/25 01:46:39;;;;;;;86.53;47.63;;;;;;;3.92;50.38;99433.83;114985;1200;103124;-73
2021/03/25 01:49:15;;;;;;;81.23;45.07;;;;;;;3.92;49.98;99424.17;115013;1200;103153;-72
2021/03/25 01:51:54;;;;;;;82.50;45.65;;;;;;;3.94;50.08;99429.36;115004;1200;103228;-74
2021/03/25 01:54:36;;;;;;;78.65;45.50;;;;;;;3.95;50.79;99434.58;115002;1200;103267;-72
2021/03/25 01:57:21;;;;;;;82.90;47.73;;;;;;;3.98;50.43;99425.69;115025;1200;103085;-76
2021/03/25 02:00:07;;;;;;;79.23;44.97;;;;;;;4.00;50.89;99431.75;115029;1200;103041;-75
2021/03/25 02:02:43;;;;;;;78.70;44.95;;;;;;;4.01;50.91;99422.94;114977;1200;104503;-74
2021/03/25 02:05:20;;;;;;;76.70;43.40;;;;;;;4.02;50.53;99432.55;114922;1200;103149;-72
2021/03/25 02:08:15;;;;;;;76.73;43.47;;;;;;;4.05;50.99;99432.44;114933;1200;103036;-72
2021/03/25 02:11:01;;;;;;;66.40;35.03;;;;;;;3.98;51.30;99434.47;114992;1200;103050;-73
2021/03/25 02:13:48;;;;;;;87.15;45.45;;;;;;;3.49;51.77;99425.84;115008;1200;103171;-72
2021/03/25 02:16:28;;;;;;;92.90;48.80;;;;;;;2.95;51.77;99437.41;115019;1200;103151;-73
2021/03/25 02:19:16;;;;;;;103.50;53.75;;;;;;;2.67;51.52;99434.88;114958;1200;103124;-71
2021/03/25 02:22:07;;;;;;;102.10;56.53;;;;;;;2.57;51.19;99430.84;115022;1200;103031;-72
2021/03/25 02:25:07;;;;;;;98.57;54.30;;;;;;;2.58;51.14;99427.31;114996;1200;103133;-72
2021/03/25 02:28:20;;;;;;;108.95;58.55;;;;;;;2.57;51.01;99425.59;115003;1200;103047;-73
2021/03/25 02:31:04;;;;;;;89.17;48.00;;;;;;;2.56;52.04;99429.13;114982;1200;103063;-74
2021/03/25 02:33:35;;;;;;;118.85;64.80;;;;;;;2.31;51.15;99425.55;114902;1200;103082;-74
2021/03/25 02:36:11;;;;;;;115.55;59.10;;;;;;;2.27;51.27;99433.59;114969;1200;103066;-72
2021/03/25 02:38:55;;;;;;;107.83;59.03;;;;;;;2.34;51.09;99432.48;114985;1200;103523;-73
2021/03/25 02:41:33;;;;;;;116.50;59.90;;;;;;;2.43;51.59;99434.82;115006;1200;103057;-72
2021/03/25 02:44:11;;;;;;;114.43;59.77;;;;;;;2.49;51.31;99429.33;114955;1200;103667;-73
2021/03/25 02:46:50;;;;;;;115.80;62.20;;;;;;;2.55;51.54;99427.41;114946;1200;103317;-72
2021/03/25 02:49:23;;;;;;;118.65;60.35;;;;;;;2.62;51.73;99421.05;114928;1200;103041;-71
2021/03/25 02:52:15;;;;;;;110.03;60.28;;;;;;;2.67;51.64;99430.47;114965;1200;103065;-72
2021/03/25 02:54:45;;;;;;;114.73;60.50;;;;;;;2.74;51.44;99430.27;115017;1200;103111;-73
2021/03/25 02:57:44;;;;;;;108.65;58.30;;;;;;;2.77;51.60;99428.41;115035;1200;103156;-73
2021/03/25 03:00:18;;;;;;;102.43;57.50;;;;;;;2.80;52.36;99419.55;114977;1200;103181;-72
2021/03/25 03:02:55;;;;;;;100.95;56.05;;;;;;;2.79;51.78;99421.33;115014;1199;103079;-73
2021/03/25 03:05:26;;;;;;;90.00;51.50;;;;;;;2.85;52.42;99427.29;114858;1200;103043;-72
2021/03/25 03:08:07;;;;;;;86.70;48.13;;;;;;;2.88;52.56;99428.02;114838;1200;103082;-73
2021/03/25 03:10:57;;;;;;;94.43;50.83;;;;;;;2.93;52.46;99425.22;114834;1199;103309;-72
2021/03/25 03:13:29;;;;;;;97.30;52.80;;;;;;;2.90;52.04;99428.83;114941;1200;103124;-73
2021/03/25 03:16:06;;;;;;;97.97;53.17;;;;;;;2.87;52.10;99435.94;114973;1200;103178;-73
2021/03/25 03:19:06;;;;;;;96.10;49.20;;;;;;;2.89;52.51;99426.23;114987;1199;103088;-73
2021/03/25 03:21:48;;;;;;;98.83;55.47;;;;;;;2.78;51.76;99422.24;114953;1199;103130;-73
2021/03/25 03:24:15;;;;;;;106.80;59.20;;;;;;;2.73;51.84;99424.17;114943;1199;103262;-74
2021/03/25 03:26:56;;;;;;;112.13;58.47;;;;;;;2.75;52.41;99434.61;114942;1200;103082;-72
2021/03/25 03:29:27;;;;;;;108.67;57.90;;;;;;;2.79;52.70;99430.97;115003;1200;103043;-72
2021/03/25 03:32:10;;;;;;;90.43;50.43;;;;;;;2.74;52.21;99427.64;114929;1200;103066;-72
2021/03/25 03:34:44;;;;;;;105.10;56.55;;;;;;;2.65;52.50;99432.29;114943;1202;103044;-72
2021/03/25 03:37:32;;;;;;;105.20;59.03;;;;;;;2.69;52.76;99435.69;114916;1200;103142;-72
2021/03/25 03:40:06;;;;;;;102.10;53.80;;;;;;;2.72;52.65;99438.22;114967;1199;103031;-72
2021/03/25 03:43:01;;;;;;;100.15;53.98;;;;;;;2.55;53.50;99437.92;115021;1199;103060;-71
2021/03/25 03:45:31;;;;;;;104.70;56.80;;;;;;;2.27;53.71;99433.59;114997;1200;103206;-73
2021/03/25 03:48:06;;;;;;;106.95;57.45;;;;;;;2.08;53.82;99435.05;115039;1200;103033;-73
2021/03/25 03:50:49;;;;;;;99.33;53.07;;;;;;;1.99;53.68;99435.34;115002;1199;103273;-72
2021/03/25 03:53:19;;;;;;;113.53;58.87;;;;;;;1.82;53.75;99435.87;114986;1199;103076;-74
2021/03/25 03:55:48;;;;;;;111.70;58.30;;;;;;;1.72;54.36;99435.30;115052;1199;103028;-73
2021/03/25 03:58:39;;;;;;;105.07;57.30;;;;;;;1.70;54.23;99436.23;114990;1200;103057;-73
2021/03/25 04:01:35;;;;;;;105.33;55.53;;;;;;;1.64;53.99;99432.88;114953;1199;103067;-73
2021/03/25 04:04:12;;;;;;;102.50;54.77;;;;;;;1.58;53.65;99427.85;114990;1200;103501;-74
2021/03/25 04:06:52;;;;;;;111.97;59.70;;;;;;;1.57;54.24;99436.63;114951;1200;103040;-73
2021/03/25 04:09:32;;;;;;;102.40;52.17;;;;;;;1.61;54.25;99429.51;115003;1200;103050;-74
2021/03/25 04:12:15;;;;;;;110.00;55.37;;;;;;;1.57;54.90;99430.50;114982;1200;103179;-74
2021/03/25 04:14:56;;;;;;;92.27;48.20;;;;;;;1.49;54.66;99430.74;115036;1200;103139;-73
2021/03/25 04:17:35;;;;;;;104.73;56.87;;;;;;;1.51;54.13;99431.56;115010;1200;103204;-73
2021/03/25 04:20:10;;;;;;;100.33;55.37;;;;;;;1.61;54.37;99430.38;114984;1200;103114;-73
2021/03/25 04:22:57;;;;;;;103.13;56.53;;;;;;;1.73;54.04;99428.27;114991;1199;103137;-73
2021/03/25 04:25:30;;;;;;;105.15;58.65;;;;;;;1.81;53.97;99438.55;114991;1200;103185;-72
2021/03/25 04:28:15;;;;;;;106.05;57.55;;;;;;;1.88;54.09;99432.19;114995;1200;103034;-73
2021/03/25 04:30:47;;;;;;;86.43;46.97;;;;;;;1.93;54.04;99431.15;114945;1200;103130;-73
2021/03/25 04:33:20;;;;;;;101.60;57.43;;;;;;;1.88;54.23;99429.56;115001;1200;103140;-73
2021/03/25 04:35:52;;;;;;;114.10;57.70;;;;;;;1.87;54.76;99428.72;114995;1200;103172;-73
2021/03/25 04:38:32;;;;;;;100.20;53.77;;;;;;;1.77;54.70;99429.90;115000;1200;103069;-73
2021/03/25 04:41:02;;;;;;;102.80;53.90;;;;;;;1.68;54.96;99428.42;115023;1200;103503;-73
2021/03/25 04:43:59;;;;;;;103.25;54.90;;;;;;;1.66;54.84;99430.23;115019;1200;103139;-75
2021/03/25 04:46:41;;;;;;;100.63;56.57;;;;;;;1.70;54.67;99430.98;114978;1200;103162;-75
2021/03/25 04:49:22;;;;;;;97.53;54.43;;;;;;;1.76;54.76;99430.80;115006;1200;103068;-74
2021/03/25 04:51:58;;;;;;;93.30;52.45;;;;;;;1.83;54.55;99423.63;114987;1200;103046;-73
2021/03/25 04:54:29;;;;;;;100.00;55.25;;;;;;;1.93;54.87;99425.91;115011;1200;103206;-72
2021/03/25 04:57:08;;;;;;;99.70;55.87;;;;;;;2.01;54.90;99428.27;115034;1200;103472;-72
2021/03/25 04:59:39;;;;;;;98.87;54.33;;;;;;;2.11;54.63;99430.61;114978;1199;103145;-72
2021/03/25 05:02:10;;;;;;;96.30;52.00;;;;;;;2.19;54.82;99441.73;114993;1200;103140;-75
2021/03/25 05:04:51;;;;;;;105.63;55.83;;;;;;;2.27;54.75;99438.84;114988;1200;103129;-73
2021/03/25 05:07:35;;;;;;;107.75;56.45;;;;;;;2.33;54.62;99442.12;115002;1200;103041;-74
2021/03/25 05:10:16;;;;;;;100.35;53.50;;;;;;;2.40;54.73;99434.04;114967;1200;103193;-73
2021/03/25 05:12:46;;;;;;;92.90;52.37;;;;;;;2.44;54.54;99441.78;114977;1200;103183;-75
2021/03/25 05:15:18;;;;;;;91.03;51.13;;;;;;;2.45;55.10;99442.63;115028;1200;103035;-76
2021/03/25 05:18:18;;;;;;;94.60;52.00;;;;;;;2.53;55.12;99448.48;114916;1200;103136;-74
2021/03/25 05:21:02;;;;;;;91.45;52.70;;;;;;;2.61;55.56;99445.59;114934;1200;103089;-75
2021/03/25 05:23:48;;;;;;;96.13;53.37;;;;;;;2.69;54.94;99451.45;114957;1200;103156;-73
2021/03/25 05:26:30;;;;;;;92.15;52.85;;;;;;;2.76;55.02;99445.08;114910;1200;103065;-72
2021/03/25 05:29:03;;;;;;;89.77;51.90;;;;;;;2.84;55.28;99439.55;114927;1199;103127;-73
2021/03/25 05:31:35;;;;;;;102.45;54.95;;;;;;;2.91;55.60;99448.94;114824;1199;103079;-72
2021/03/25 05:34:08;;;;;;;90.55;51.95;;;;;;;2.97;55.09;99443.47;114846;1199;103181;-73
2021/03/25 05:36:39;;;;;;;97.90;54.55;;;;;;;3.04;55.36;99446.73;114909;1200;103127;-70
2021/03/25 05:39:09;;;;;;;96.57;53.97;;;;;;;3.11;55.47;99444.73;114882;1200;103081;-70
2021/03/25 05:41:50;;;;;;;95.65;54.45;;;;;;;3.18;55.98;99448.86;114939;1200;103043;-72
2021/03/25 05:44:45;;;;;;;95.50;51.60;;;;;;;3.27;55.67;99450.28;114963;1199;103079;-70
2021/03/25 05:47:35;;;;;;;96.80;53.80;;;;;;;3.34;55.70;99441.27;114864;1200;103082;-73
2021/03/25 05:50:10;;;;;;;86.30;49.90;;;;;;;3.41;55.78;99445.39;114954;1200;103196;-74
2021/03/25 05:53:04;;;;;;;86.00;48.63;;;;;;;3.47;56.00;99449.55;114870;1200;103178;-74
2021/03/25 05:56:01;;;;;;;85.63;48.47;;;;;;;3.54;56.29;99450.20;114857;1200;103143;-74
2021/03/25 05:58:43;;;;;;;85.65;48.80;;;;;;;3.60;55.73;99444.70;114869;1200;103046;-74
2021/03/25 06:02:00;;;;;;;82.70;48.30;;;;;;;3.67;56.08;99453.21;114931;1200;103043;-73
2021/03/25 06:04:35;;;;;;;85.50;48.87;;;;;;;3.75;55.80;99451.15;114900;1200;103201;-72
2021/03/25 06:07:05;;;;;;;79.17;45.07;;;;;;;3.81;56.26;99450.05;114890;1200;103223;-70
2021/03/25 06:09:42;;;;;;;82.15;45.15;;;;;;;3.84;56.05;99452.56;114754;1199;103598;-75
2021/03/25 06:12:50;;;;;;;83.77;50.00;;;;;;;3.91;56.37;99447.91;114889;1200;103139;-74
2021/03/25 06:15:35;;;;;;;81.47;46.40;;;;;;;3.98;55.93;99459.91;114894;1200;103201;-75
2021/03/25 06:18:17;;;;;;;85.97;48.50;;;;;;;4.04;56.60;99464.94;114859;1200;103193;-75
2021/03/25 06:20:57;;;;;;;78.80;47.40;;;;;;;4.10;55.89;99463.83;114927;1200;103248;-74
2021/03/25 06:23:56;;;;;;;82.93;47.57;;;;;;;4.14;56.39;99461.03;114890;1200;103105;-76
2021/03/25 06:26:36;;;;;;;86.27;48.17;;;;;;;4.20;56.55;99465.19;114868;1200;103137;-72
2021/03/25 06:29:14;;;;;;;87.40;47.70;;;;;;;4.26;56.26;99466.73;114901;1200;103525;-74
2021/03/25 06:32:10;;;;;;;87.80;51.23;;;;;;;4.30;56.43;99465.66;114897;1199;103034;-73
2021/03/25 06:35:06;;;;;;;86.50;48.90;;;;;;;4.35;56.78;99462.86;114840;1200;103072;-75
2021/03/25 06:37:42;;;;;;;81.43;48.75;;;;;;;4.36;56.81;99469.84;114902;1200;103133;-80
2021/03/25 06:40:22;;;;;;;85.60;48.90;;;;;;;4.39;56.91;99472.36;114914;1200;103123;-74
2021/03/25 06:43:12;;;;;;;83.93;49.23;;;;;;;4.45;56.51;99467.68;114951;1199;103121;-77
2021/03/25 06:45:56;;;;;;;86.90;49.10;;;;;;;4.50;56.72;99472.75;114969;1200;103316;-73
2021/03/25 06:48:29;;;;;;;;;;;;;;;4.54;57.77;99479.61;114938;1207;103158;-76
2021/03/25 06:50:56;;;;;;;113.00;64.00;;;;;;;4.59;56.45;99482.91;114958;1199;103052;-74
2021/03/25 06:53:32;;;;;;;107.23;58.70;;;;;;;4.66;57.08;99477.39;114924;1200;103143;-74
2021/03/25 06:56:05;;;;;;;103.40;55.75;;;;;;;4.72;56.92;99485.05;114973;1200;103075;-70
2021/03/25 06:58:56;;;;;;;98.40;52.87;;;;;;;4.76;56.59;99489.27;114940;1200;103225;-75
2021/03/25 07:01:29;;;;;;;99.50;56.75;;;;;;;4.80;57.26;99487.35;114599;1200;103187;-73
2021/03/25 07:04:25;;;;;;;112.80;62.60;;;;;;;4.82;57.28;99491.66;114832;1200;103152;-75
2021/03/25 07:07:02;;;;;;;115.33;63.63;;;;;;;4.88;57.29;99494.03;114897;1200;103124;-76
2021/03/25 07:09:34;;;;;;;111.80;62.07;;;;;;;4.94;57.26;99489.39;114875;1200;103194;-78
2021/03/25 07:12:07;;;;;;;107.67;56.87;;;;;;;4.98;57.33;99502.40;114889;1200;103065;-74
2021/03/25 07:14:41;;;;;;;94.13;54.37;;;;;;;5.01;57.40;99491.72;114877;1200;103082;-77
2021/03/25 07:17:14;;;;;;;89.23;51.43;;;;;;;5.05;57.36;99495.08;114941;1200;103062;-76
2021/03/25 07:19:48;;;;;;;90.85;54.95;;;;;;;5.09;57.21;99501.94;114864;1200;103152;-75
2021/03/25 07:22:18;;;;;;;89.60;51.28;;;;;;;5.12;57.30;99496.53;114834;1199;103178;-72
2021/03/25 07:24:51;;;;;;;92.37;52.67;;;;;;;5.15;57.13;99499.03;114875;1200;103441;-73
2021/03/25 07:27:38;;;;;;;92.50;54.85;;;;;;;5.18;56.99;99511.22;114865;1200;103255;-77
2021/03/25 07:30:18;;;;;;;96.35;54.15;;;;;;;5.23;57.21;99501.33;114852;1200;103084;-76
2021/03/25 07:33:06;;;;;;;84.93;50.43;;;;;;;5.25;57.63;99501.27;114829;1200;103062;-74
2021/03/25 07:35:47;;;;;;;83.50;51.60;;;;;;;5.23;57.34;99503.13;114883;1199;103040;-74
2021/03/25 07:38:24;;;;;;;87.90;49.97;;;;;;;5.25;57.62;99503.91;114793;1200;103174;-75
2021/03/25 07:41:13;;;;;;;89.90;51.37;;;;;;;5.28;57.21;99504.63;114882;1200;103101;-76
2021/03/25 07:44:27;;;;;;;89.30;51.00;;;;;;;5.34;57.33;99500.84;114875;1200;103187;-74
2021/03/25 07:46:58;;;;;;;81.85;49.15;;;;;;;5.36;57.63;99502.51;114861;1200;103079;-73
2021/03/25 07:49:35;;;;;;;82.15;49.40;;;;;;;5.40;57.57;99507.66;114927;1200;103041;-71
2021/03/25 07:52:26;;;;;;;91.20;52.00;;;;;;;5.43;57.59;99497.81;114848;1200;103548;-76
2021/03/25 07:55:33;;;;;;;90.37;52.30;;;;;;;5.46;57.42;99499.47;114909;1200;103065;-75
2021/03/25 07:58:05;;;;;;;88.30;50.63;;;;;;;5.50;57.76;99504.53;114923;1200;103046;-74
2021/03/25 08:00:36;;;;;;;88.90;51.65;;;;;;;5.54;57.72;99505.23;115064;1200;103146;-75
2021/03/25 08:03:11;;;;;;;86.50;50.70;;;;;;;5.57;57.95;99512.17;114864;1199;103059;-77
2021/03/25 08:05:41;;;;;;;84.00;48.73;;;;;;;5.60;57.81;99512.04;114942;1199;103181;-74
2021/03/25 08:08:30;;;;;;;85.23;50.50;;;;;;;5.65;58.04;99508.25;114910;1200;103185;-74
2021/03/25 08:11:20;;;;;;;88.13;49.90;;;;;;;5.66;57.76;99506.48;114926;1200;103034;-76
2021/03/25 08:14:17;;;;;;;94.73;53.73;;;;;;;5.74;57.82;99511.41;114880;1200;103149;-73
2021/03/25 08:16:53;;;;;;;95.10;52.43;;;;;;;5.79;57.94;99512.06;114968;1200;103082;-72
2021/03/25 08:19:52;;;;;;;95.27;54.17;;;;;;;5.84;57.90;99509.19;114907;1199;103219;-75
2021/03/25 08:22:21;;;;;;;88.20;50.57;;;;;;;5.89;58.00;99510.71;114890;1200;103152;-76
2021/03/25 08:24:57;;;;;;;86.10;50.75;;;;;;;5.95;57.86;99504.28;114991;1200;103181;-76
2021/03/25 08:27:46;;;;;;;92.57;50.13;;;;;;;6.01;58.03;99495.23;114938;1200;103159;-77
2021/03/25 08:30:53;;;;;;;85.37;47.27;;;;;;;6.05;58.07;99499.45;114979;1199;103495;-74
2021/03/25 08:33:41;;;;;;;82.35;48.10;;;;;;;6.07;58.06;99505.52;115016;1200;103037;-74
2021/03/25 08:36:31;;;;;;;80.20;47.55;;;;;;;6.09;58.17;99501.02;114948;1200;103097;-77
2021/03/25 08:39:26;;;;;;;82.40;50.57;;;;;;;6.12;58.17;99495.59;114976;1200;103145;-77
2021/03/25 08:42:18;;;;;;;82.90;48.85;;;;;;;6.13;58.23;99499.95;114905;1200;103043;-75
2021/03/25 08:45:31;;;;;;;79.40;44.57;;;;;;;6.15;58.06;99503.38;114937;1199;103132;-74
2021/03/25 08:48:17;;;;;;;78.10;46.85;;;;;;;6.21;58.05;99500.45;114600;1203;103406;-74
2021/03/25 08:50:58;;;;;;;81.70;45.60;;;;;;;6.28;58.20;99510.72;114632;1203;103261;-74
2021/03/25 08:53:50;;;;;;;79.20;44.83;;;;;;;6.33;58.39;99509.56;114876;1199;103031;-74
2021/03/25 08:56:44;;;;;;;77.30;47.05;;;;;;;6.40;58.23;99512.75;114969;1200;103050;-75
2021/03/25 08:59:18;;;;;;;;;;;;;;;6.47;58.80;99508.89;114967;1208;103050;-75
2021/03/25 09:01:50;;;;;;;74.00;42.98;;;;;;;6.49;58.41;99506.19;114947;1200;103069;-73
2021/03/25 09:04:24;;;;;;;83.70;45.43;;;;;;;6.50;58.42;99506.09;114882;1199;103082;-73
2021/03/25 09:06:54;;;;;;;;;;;;;;;6.54;58.85;99507.66;114959;1207;103133;-74
2021/03/25 09:09:41;;;;;;;78.80;45.77;;;;;;;6.59;58.44;99507.42;114856;1200;103571;-74
2021/03/25 09:12:16;;;;;;;74.15;46.00;;;;;;;6.65;58.68;99506.28;114865;1200;103132;-72
2021/03/25 09:14:43;;;;;;;80.10;46.63;;;;;;;6.70;58.62;99497.19;114911;1200;103248;-74
2021/03/25 09:17:18;;;;;;;82.00;50.25;;;;;;;6.80;58.46;99502.86;114912;1199;103049;-73
2021/03/25 09:19:52;;;;;;;77.50;47.37;;;;;;;6.91;58.27;99496.18;114872;1200;103190;-72
2021/03/25 09:22:43;;;;;;;78.17;45.90;;;;;;;6.95;58.59;99506.52;114836;1200;103163;-71
2021/03/25 09:25:20;;;;;;;76.70;46.83;;;;;;;7.01;58.53;99492.14;114898;1200;103252;-70
2021/03/25 09:28:04;;;;;;;77.43;44.33;;;;;;;7.05;58.47;99496.34;114967;1200;103155;-71
2021/03/25 09:30:42;;;;;;;;;;;;;;;7.10;58.75;99498.73;114915;1207;103200;-73
2021/03/25 15:03:22;;;;;;;56.37;31.87;;;;;;;8.16;55.21;99364.99;115048;1167;103251;-69
2021/03/25 15:05:52;;;;;;;56.30;32.17;;;;;;;8.14;55.15;99358.09;114885;1199;103142;-71
2021/03/25 15:08:20;;;;;;;49.70;27.50;;;;;;;8.13;55.05;99356.38;114936;1199;103062;-72
2021/03/25 15:10:50;;;;;;;53.60;29.43;;;;;;;8.12;55.36;99346.72;115007;1199;103066;-71
2021/03/25 15:13:18;;;;;;;54.43;31.50;;;;;;;8.12;55.33;99352.89;114979;1200;103352;-70
2021/03/25 15:15:46;;;;;;;55.25;32.15;;;;;;;8.10;55.37;99360.08;114961;1199;103040;-71
2021/03/25 15:18:15;;;;;;;52.03;29.07;;;;;;;8.14;55.31;99358.09;114980;1199;103114;-71
2021/03/25 15:20:44;;;;;;;50.90;27.60;;;;;;;8.15;54.95;99349.20;115003;1199;103522;-71
2021/03/25 15:23:28;;;;;;;52.63;29.60;;;;;;;8.15;55.21;99351.84;114979;1199;103143;-70
2021/03/25 15:25:59;;;;;;;47.73;28.20;;;;;;;8.18;55.29;99347.21;114972;1199;103204;-71
2021/03/25 15:28:29;;;;;;;53.43;28.07;;;;;;;8.23;55.06;99349.61;115001;1199;103036;-71
2021/03/25 15:30:58;;;;;;;53.45;28.05;;;;;;;8.19;55.00;99354.22;114940;1199;103142;-71
2021/03/25 15:33:26;;;;;;;52.95;30.20;;;;;;;8.17;54.92;99353.45;114944;1200;103043;-71
2021/03/25 15:35:55;;;;;;;56.85;31.10;;;;;;;8.16;54.75;99357.05;114948;1199;103156;-71
2021/03/25 15:38:26;;;;;;;55.50;31.77;;;;;;;8.17;54.77;99364.05;114919;1200;103146;-72
2021/03/25 15:40:56;;;;;;;57.33;32.13;;;;;;;8.18;55.10;99356.97;114924;1198;103134;-71
2021/03/25 15:43:36;;;;;;;56.90;31.33;;;;;;;8.15;54.86;99354.50;114968;1200;103360;-70
2021/03/25 15:46:04;;;;;;;53.60;29.97;;;;;;;8.13;54.75;99356.38;114954;1199;103073;-70
2021/03/25 15:48:32;;;;;;;52.03;28.53;;;;;;;8.13;55.12;99353.73;114963;1198;103258;-70
2021/03/25 15:50:59;;;;;;;57.05;30.65;;;;;;;8.13;54.99;99359.03;115009;1199;103111;-71
2021/03/25 15:53:30;;;;;;;57.07;30.77;;;;;;;8.13;54.67;99353.73;114974;1199;103082;-71
2021/03/25 15:55:58;;;;;;;55.50;32.53;;;;;;;8.12;54.71;99352.89;114896;1199;103124;-71
2021/03/25 15:58:26;;;;;;;55.67;30.67;;;;;;;8.13;54.65;99356.38;114932;1199;103070;-71
2021/03/25 16:00:53;;;;;;;56.50;30.90;;;;;;;8.10;54.97;99354.78;114951;1199;103044;-71
2021/03/25 16:03:21;;;;;;;56.83;30.47;;;;;;;8.09;54.64;99354.84;114959;1199;103130;-72
2021/03/25 16:05:48;;;;;;;59.53;33.70;;;;;;;8.06;54.74;99366.49;114914;1198;103080;-73
2021/03/25 16:08:16;;;;;;;62.10;35.23;;;;;;;8.01;54.87;99356.14;114930;1199;103062;-71
2021/03/25 16:10:44;;;;;;;63.33;34.00;;;;;;;7.95;54.51;99359.14;114837;1200;103056;-72
2021/03/25 16:13:12;;;;;;;59.47;35.93;;;;;;;7.92;54.42;99356.69;114942;1200;103136;-70
2021/03/25 16:15:45;;;;;;;63.17;37.07;;;;;;;7.89;54.33;99362.16;114910;1199;103134;-71
2021/03/25 16:18:15;;;;;;;61.80;38.10;;;;;;;7.82;54.34;99363.45;114966;1199;103136;-71
2021/03/25 16:20:45;;;;;;;58.90;33.25;;;;;;;7.73;54.22;99363.02;114958;1199;103108;-70
2021/03/25 16:23:22;;;;;;;67.20;40.47;;;;;;;7.68;54.68;99369.52;114967;1199;103079;-70
2021/03/25 16:25:51;;;;;;;66.97;39.63;;;;;;;7.64;54.76;99365.34;114972;1200;103072;-71
2021/03/25 16:28:20;;;;;;;65.97;38.87;;;;;;;7.62;54.36;99356.63;114962;1199;103663;-70
2021/03/25 16:30:47;;;;;;;67.23;39.73;;;;;;;7.58;54.48;99367.38;114936;1198;103089;-73
2021/03/25 16:33:14;;;;;;;69.57;40.40;;;;;;;7.54;54.52;99375.59;114918;1200;103034;-71
2021/03/25 16:35:44;;;;;;;74.27;42.73;;;;;;;7.48;54.38;99371.47;114936;1200;103025;-71
2021/03/25 16:38:16;;;;;;;70.25;40.30;;;;;;;7.45;54.24;99372.51;114975;1200;103059;-70
2021/03/25 16:40:44;;;;;;;73.95;42.90;;;;;;;7.42;54.34;99371.80;114836;1199;103174;-71
2021/03/25 16:43:15;;;;;;;78.70;44.53;;;;;;;7.38;54.30;99373.78;114960;1199;103143;-70
2021/03/25 16:45:44;;;;;;;80.00;46.40;;;;;;;7.34;54.47;99372.23;114920;1198;103134;-71
2021/03/25 16:48:15;;;;;;;78.30;44.50;;;;;;;7.32;54.19;99376.75;114885;1200;103175;-71
2021/03/25 16:50:45;;;;;;;80.87;46.13;;;;;;;7.28;54.18;99376.08;114877;1199;103111;-70
2021/03/25 16:53:25;;;;;;;80.50;44.63;;;;;;;7.23;54.48;99370.17;114865;1200;103204;-69
2021/03/25 16:55:53;;;;;;;86.17;49.70;;;;;;;7.21;54.28;99379.11;114841;1200;103143;-72
2021/03/25 16:58:21;;;;;;;85.70;47.93;;;;;;;7.20;54.36;99374.77;114870;1199;103034;-72
2021/03/25 17:00:50;;;;;;;83.40;48.97;;;;;;;7.19;54.31;99375.70;115018;1200;103069;-71
2021/03/25 17:03:18;;;;;;;82.53;47.47;;;;;;;7.15;54.27;99375.02;114854;1199;103120;-71
2021/03/25 17:05:51;;;;;;;87.00;47.20;;;;;;;7.11;54.25;99381.41;114952;1199;103114;-70
2021/03/25 17:08:21;;;;;;;81.70;47.97;;;;;;;7.06;54.36;99379.02;114918;1200;103037;-69
2021/03/25 17:10:49;;;;;;;76.10;43.60;;;;;;;7.04;54.18;99380.89;114888;1198;103062;-70
2021/03/25 17:13:19;;;;;;;77.23;44.90;;;;;;;6.95;54.17;99390.14;114843;1199;103146;-70
2021/03/25 17:15:49;;;;;;;78.07;45.33;;;;;;;6.90;54.35;99381.63;114843;1200;103037;-69
2021/03/25 17:18:17;;;;;;;80.73;46.33;;;;;;;6.88;54.17;99382.63;114906;1199;103136;-70
2021/03/25 17:20:47;;;;;;;87.30;48.40;;;;;;;6.83;54.17;99386.36;114917;1200;103111;-72
2021/03/25 17:23:16;;;;;;;79.50;47.17;;;;;;;6.81;54.21;99395.32;114960;1200;103149;-69
2021/03/25 17:25:47;;;;;;;86.67;48.67;;;;;;;6.78;54.05;99398.96;114901;1200;103140;-71